• Join FlightAware (Why Join?)
  • Login
  • US Flag 
08:38AM EDT


 

Airport Tracker/Info


-or-


 

Live Flight TrackerFlight Track Log ✈ ASQ6115 ✈ 15-Jun-2013 ✈ KTYS - KIAH

Flight Track Log - Related Links

Times and Time Zones

All times are in EDT time to prevent confusion due to time zone crossing. See the ASQ6115 flight status page for this flight to view local times or setup timezone preferences in your user account.

Time Position Orientation Groundspeed Altitude Reporting Facility
EDT Latitude Longitude Course Direction KTS MPH feet Rate Location/Type
06:06PM 35.7392 -84.0872 226° Southwest 190 219 4,700  Level Atlanta Center
06:07PM 35.5943 -84.2880 229° Southwest  Level FlightAware Approximate
06:07PM 35.6975 -84.1461 229° Southwest 214 246 6,800  Level Atlanta Center
06:08PM 35.5214 -84.3868 226° Southwest  Level FlightAware Approximate
06:08PM 35.6514 -84.2075 227° Southwest 229 264 8,600  Level Atlanta Center
06:09PM 35.4465 -84.4831 226° Southwest  Level FlightAware Approximate
06:09PM 35.6011 -84.2789 229° Southwest 257 296 10,300  Level Atlanta Center
06:10PM 35.3713 -84.5791 226° Southwest  Level FlightAware Approximate
06:10PM 35.5489 -84.3528 229° Southwest 280 322 11,900  Level Atlanta Center
06:11PM 35.2960 -84.6749 226° Southwest  Level FlightAware Approximate
06:11PM 35.4903 -84.4317 228° Southwest 298 343 13,400  Level Atlanta Center
06:12PM 35.4317 -84.5153 229° Southwest 319 367 14,200 960 Climbing Atlanta Center
06:13PM 35.3644 -84.6017 226° Southwest 337 388 15,400 960 Climbing Atlanta Center
06:14PM 35.2908 -84.7056 229° Southwest 357 411 16,200 780 Climbing Atlanta Center
06:15PM 35.2194 -84.8039 228° Southwest 371 427 17,000 780 Climbing Atlanta Center
06:16PM 35.1478 -84.9025 228° Southwest 389 448 17,800 900 Climbing Atlanta Center
06:17PM 35.0761 -85.0006 228° Southwest 389 448 18,900 1,200 Climbing Atlanta Center
06:18PM 35.0044 -85.0961 228° Southwest 384 442 20,200 1,440 Climbing Atlanta Center
06:19PM 34.9389 -85.1892 229° Southwest 384 442 21,800 1,320 Climbing Atlanta Center
06:20PM 34.8692 -85.2844 228° Southwest 384 442 22,900 1,020 Climbing Atlanta Center
06:21PM 34.8014 -85.3769 228° Southwest 384 442 23,900 840 Climbing Atlanta Center
06:22PM 34.7292 -85.4717 227° Southwest 384 442 24,600 780 Climbing Atlanta Center
06:23PM 34.6572 -85.5717 229° Southwest 384 442 25,500 720 Climbing Atlanta Center
06:24PM 34.5850 -85.6736 229° Southwest 390 449 26,100 900 Climbing Atlanta Center
06:25PM 34.5106 -85.7731 228° Southwest 395 455 27,400 960 Climbing Atlanta Center
06:26PM 34.4361 -85.8697 227° Southwest 395 455 28,100 300 Climbing Atlanta Center
06:27PM 34.3614 -85.9764 230° Southwest 401 461 28,000 -60 Descending Atlanta Center
06:28PM 34.2803 -86.0850 228° Southwest 420 483 28,000  Level Atlanta Center
06:29PM 34.2175 -86.2142 240° Southwest 437 503 28,000  Level Atlanta Center
06:30PM 34.1608 -86.3433 242° Southwest 447 514 28,000  Level Atlanta Center
06:31PM 34.0997 -86.4797 242° Southwest 447 514 28,000  Level Atlanta Center
06:32PM 34.0408 -86.6158 242° Southwest 452 520 28,000 -60 Level Atlanta Center
06:33PM 33.9794 -86.7519 241° Southwest 452 520 27,900  Descending Atlanta Center
06:34PM 33.9197 -86.8925 243° Southwest 463 533 28,000 60 Climbing Atlanta Center
06:35PM 33.8669 -87.0133 242° Southwest 463 533 28,100  Climbing Atlanta Center
06:36PM 33.7564 -87.2642 242° Southwest 476 548 28,100 -60 Level Memphis Center
06:37PM 33.6931 -87.4011 241° Southwest 476 548 28,000 -120 Descending Memphis Center
06:38PM 33.6317 -87.5456 243° Southwest 471 542 27,900  Descending Memphis Center
06:39PM 33.5697 -87.6794 241° Southwest 471 542 28,000  Climbing Memphis Center
06:40PM 33.5100 -87.8158 242° Southwest 471 542 28,000 -60 Level Memphis Center
06:41PM 33.4461 -87.9522 241° Southwest 471 542 27,900 -60 Descending Memphis Center
06:42PM 33.3839 -88.0933 242° Southwest 471 542 27,900  Level Memphis Center
06:43PM 33.3197 -88.2417 243° Southwest 471 542 28,000  Climbing Memphis Center
06:44PM 33.2572 -88.3797 242° Southwest 471 542 28,000 -60 Level Memphis Center
06:45PM 33.1925 -88.5128 240° Southwest 471 542 27,900  Descending Memphis Center
06:46PM 33.1319 -88.6481 242° Southwest 466 536 28,000  Climbing Memphis Center
06:47PM 33.0689 -88.7831 241° Southwest 466 536 28,000  Level Memphis Center
06:48PM 33.0058 -88.9181 241° Southwest 466 536 28,000  Level Memphis Center
06:49PM 32.9447 -89.0503 241° Southwest 466 536 28,000  Level Memphis Center
06:50PM 32.8836 -89.1872 242° Southwest 466 536 28,000  Level Memphis Center
06:51PM 32.8178 -89.3214 240° Southwest 466 536 28,000  Level Memphis Center
06:52PM 32.7542 -89.4556 241° Southwest 466 536 28,100  Climbing Memphis Center
06:53PM 32.6903 -89.5922 241° Southwest 466 536 28,000 -120 Descending Memphis Center
06:54PM 32.6244 -89.7258 240° Southwest 466 536 27,900  Descending Memphis Center
06:55PM 32.5622 -89.8619 242° Southwest 471 542 28,000 60 Climbing Memphis Center
06:56PM 32.4981 -89.9978 241° Southwest 471 542 28,100  Climbing Memphis Center
06:57PM 32.4317 -90.1308 239° Southwest 471 542 28,000 -120 Descending Memphis Center
06:58PM 32.3672 -90.2639 240° Southwest 471 542 27,900  Descending Memphis Center
06:59PM 32.3025 -90.3967 240° Southwest 471 542 28,000  Climbing Memphis Center
07:00PM 32.2356 -90.5342 240° Southwest 471 542 28,000 -60 Level Memphis Center
07:01PM 32.1725 -90.6667 241° Southwest 471 542 27,900  Descending Memphis Center
07:02PM 32.1117 -90.7958 241° Southwest 468 539 28,000  Climbing Houston Center
07:04PM 32.0467 -90.9281 240° Southwest 468 539 28,000  Level Houston Center
07:05PM 31.9808 -91.0594 239° Southwest 468 539 28,000  Level Houston Center
07:06PM 31.9161 -91.1917 240° Southwest 465 535 28,000  Level Houston Center
07:07PM 31.8511 -91.3219 240° Southwest 464 534 28,100  Climbing Houston Center
07:08PM 31.7747 -91.4783 240° Southwest 462 532 28,000 -60 Descending Houston Center
07:09PM 31.7097 -91.6067 239° Southwest 459 528 28,000  Level Houston Center
07:10PM 31.6453 -91.7361 240° Southwest 459 528 28,000  Level Houston Center
07:11PM 31.5808 -91.8644 240° Southwest 457 526 28,000  Level Houston Center
07:12PM 31.5164 -91.9922 239° Southwest 457 526 28,000 -60 Level Houston Center
07:13PM 31.4461 -92.1289 239° Southwest 452 520 27,900  Descending Houston Center
07:14PM 31.3819 -92.2567 240° Southwest 456 525 28,000  Climbing Houston Center
07:15PM 31.3161 -92.3819 238° Southwest 455 524 27,900  Descending Houston Center
07:16PM 31.2519 -92.5081 239° Southwest 454 522 28,000  Climbing Houston Center
07:17PM 31.2022 -92.6403 246° West 448 516 27,900  Descending Houston Center
07:18PM 31.1550 -92.7761 248° West 451 519 28,000  Climbing Houston Center
07:19PM 31.1053 -92.9089 246° West 449 517 28,000  Level Houston Center
07:20PM 31.0436 -93.0675 246° West 449 517 28,000  Level Houston Center
07:21PM 30.9686 -93.1822 233° Southwest 448 516 28,000 -60 Level Houston Center
07:22PM 30.8944 -93.2986 233° Southwest 449 517 27,900 -240 Descending Houston Center
07:23PM 30.8203 -93.4142 233° Southwest 448 516 27,600 -900 Descending Houston Center
07:24PM 30.7469 -93.5278 233° Southwest 444 511 26,100 -1,620 Descending Houston Center
07:25PM 30.6747 -93.6417 234° Southwest 443 510 24,300 -1,860 Descending Houston Center
07:26PM 30.5881 -93.7711 232° Southwest 431 496 22,400 -1,920 Descending Houston Center
07:27PM 30.5203 -93.8769 233° Southwest 419 482 20,400 -1,980 Descending Houston Center
07:28PM 30.4522 -93.9794 232° Southwest 407 468 18,400 -1,920 Descending Houston Center
07:29PM 30.3844 -94.0806 232° Southwest 378 435 16,500 -1,800 Descending Houston Center
07:30PM 30.3167 -94.1817 232° Southwest 384 442 14,800 -1,800 Descending Houston Center
07:31PM 30.2622 -94.2664 233° Southwest 367 422 13,100 -1,500 Descending Houston Center
07:32PM 30.2039 -94.3783 239° Southwest 342 394 11,800 -960 Descending Houston Center
07:33PM 30.1633 -94.4842 246° West 343 395 11,100 -1,020 Descending Houston Center
07:34PM 30.1264 -94.5744 245° Southwest 299 344 9,800 -1,380 Descending Houston Center
07:35PM 30.0928 -94.6611 246° West 294 338 8,400 -1,560 Descending Houston Center
07:36PM 30.0656 -94.7492 250° West 286 329 6,700 -1,260 Descending Houston Center
07:37PM 30.0500 -94.8283 257° West 279 321 6,000 -780 Descending Houston Center
07:38PM 30.0353 -94.9147 259° West 269 310 5,300 -720 Descending Houston Center
07:39PM 30.0169 -95.0147 258° West 266 306 4,400 -900 Descending Houston Center
07:40PM 30.0031 -95.0875 258° West 256 295 3,500 -840 Descending Houston Center
07:41PM 29.9942 -95.1731 263° West 256 295 2,900 -600 Descending Houston Center